createdAt,value
2023-05-03T00:00:09.654Z,16.06
2023-05-03T00:03:00.927Z,16.14
2023-05-03T00:05:30.082Z,15.81
2023-05-03T00:07:58.727Z,15.72
2023-05-03T00:10:27.252Z,15.80
2023-05-03T00:12:56.821Z,16.12
2023-05-03T00:15:25.660Z,15.84
2023-05-03T00:17:54.040Z,15.72
2023-05-03T00:20:25.281Z,16.12
2023-05-03T00:22:53.494Z,15.73
2023-05-03T00:25:21.920Z,15.80
2023-05-03T00:27:50.221Z,15.79
2023-05-03T00:30:19.630Z,15.89
2023-05-03T00:32:47.934Z,15.91
2023-05-03T00:35:17.077Z,15.91
2023-05-03T00:37:47.139Z,16.40
2023-05-03T00:40:18.662Z,16.25
2023-05-03T00:42:47.487Z,16.31
2023-05-03T00:45:16.356Z,16.37
2023-05-03T00:47:45.080Z,16.35
2023-05-03T00:50:13.951Z,16.33
2023-05-03T00:52:43.130Z,16.19
2023-05-03T00:55:14.373Z,16.60
2023-05-03T00:57:42.785Z,16.24
2023-05-03T01:00:13.706Z,16.55
2023-05-03T01:02:42.058Z,16.21
2023-05-03T01:05:11.269Z,16.39
2023-05-03T01:07:53.230Z,16.82
2023-05-03T01:10:29.490Z,16.88
2023-05-03T01:13:05.872Z,16.94
2023-05-03T01:15:43.483Z,17.00
2023-05-03T01:18:16.285Z,16.86
2023-05-03T01:20:48.646Z,16.95
2023-05-03T01:23:23.716Z,16.97
2023-05-03T01:25:54.525Z,16.94
2023-05-03T01:28:23.160Z,16.57
2023-05-03T01:30:54.570Z,16.88
2023-05-03T01:33:29.807Z,16.95
2023-05-03T01:36:02.540Z,16.91
2023-05-03T01:38:34.944Z,16.84
2023-05-03T01:41:08.499Z,16.89
2023-05-03T01:43:37.635Z,16.58
2023-05-03T01:46:06.769Z,16.33
2023-05-03T01:48:35.414Z,16.39
2023-05-03T01:51:04.092Z,16.33
2023-05-03T01:53:32.630Z,16.54
2023-05-03T01:56:01.318Z,16.51
2023-05-03T01:58:31.126Z,16.76
2023-05-03T02:00:59.975Z,16.57
2023-05-03T02:03:28.376Z,16.48
2023-05-03T02:05:57.438Z,16.65
2023-05-03T02:08:25.865Z,16.47
2023-05-03T02:10:54.635Z,16.40
2023-05-03T02:13:23.169Z,16.47
2023-05-03T02:15:53.158Z,16.76
2023-05-03T02:18:22.583Z,16.45
2023-05-03T02:20:53.298Z,16.50
2023-05-03T02:23:21.818Z,16.37
2023-05-03T02:25:50.769Z,16.45
2023-05-03T02:28:19.316Z,16.44
2023-05-03T02:30:47.927Z,16.42
2023-05-03T02:33:17.814Z,16.79
2023-05-03T02:35:46.582Z,16.42
2023-05-03T02:38:15.113Z,16.48
2023-05-03T02:40:43.730Z,16.33
2023-05-03T02:43:12.093Z,16.38
2023-05-03T02:45:40.978Z,16.42
2023-05-03T02:48:09.807Z,16.21
2023-05-03T02:50:40.505Z,16.63
2023-05-03T02:53:08.925Z,16.22
2023-05-03T02:55:37.751Z,16.30
2023-05-03T02:58:06.125Z,16.26
2023-05-03T03:00:34.724Z,16.19
2023-05-03T03:03:03.566Z,16.42
2023-05-03T03:05:33.279Z,16.25
2023-05-03T03:08:03.904Z,16.67
2023-05-03T03:10:33.063Z,16.31
2023-05-03T03:13:01.613Z,16.42
2023-05-03T03:15:30.533Z,16.36
2023-05-03T03:17:59.061Z,16.39
2023-05-03T03:20:27.767Z,16.29
2023-05-03T03:22:56.236Z,16.23
2023-05-03T03:25:26.763Z,16.65
2023-05-03T03:27:55.056Z,16.32
2023-05-03T03:30:23.669Z,16.30
2023-05-03T03:32:52.070Z,16.30
2023-05-03T03:35:21.575Z,16.40
2023-05-03T03:37:49.950Z,16.25
2023-05-03T03:40:18.620Z,16.14
2023-05-03T03:42:48.280Z,16.47
2023-05-03T03:45:17.132Z,16.23
2023-05-03T03:47:45.618Z,16.23
2023-05-03T03:50:14.292Z,16.06
2023-05-03T03:52:42.774Z,16.09
2023-05-03T03:55:11.799Z,16.05
2023-05-03T03:57:40.266Z,16.24
2023-05-03T04:00:11.962Z,16.52
2023-05-03T04:02:40.098Z,17.20
2023-05-03T04:05:09.784Z,16.39
2023-05-03T04:07:38.240Z,16.06
2023-05-03T04:10:07.787Z,16.27
2023-05-03T04:12:36.212Z,16.03
2023-05-03T04:15:06.264Z,16.43
2023-05-03T04:17:36.438Z,16.37
2023-05-03T04:20:07.280Z,16.05
2023-05-03T04:22:35.679Z,15.87
2023-05-03T04:25:04.842Z,15.96
2023-05-03T04:27:33.591Z,15.96
2023-05-03T04:30:03.566Z,16.01
2023-05-03T04:32:37.721Z,16.10
2023-05-03T04:35:10.781Z,16.49
2023-05-03T04:37:39.341Z,16.14
2023-05-03T04:40:09.880Z,16.25
2023-05-03T04:42:38.318Z,16.21
2023-05-03T04:45:09.969Z,16.38
2023-05-03T04:47:38.289Z,17.27
2023-05-03T04:50:11.487Z,16.76
2023-05-03T04:52:39.870Z,16.31
2023-05-03T04:55:09.432Z,16.41
2023-05-03T04:57:37.733Z,16.37
2023-05-03T05:00:11.207Z,16.49
2023-05-03T05:02:39.693Z,16.43
2023-05-03T05:05:11.300Z,16.75
2023-05-03T05:07:39.703Z,16.41
2023-05-03T05:10:09.834Z,16.56
2023-05-03T05:12:38.292Z,16.29
2023-05-03T05:15:09.175Z,16.55
2023-05-03T05:17:37.726Z,16.30
2023-05-03T05:20:08.927Z,16.55
2023-05-03T05:22:38.542Z,16.64
2023-05-03T05:25:08.768Z,16.55
2023-05-03T05:27:37.514Z,16.14
2023-05-03T05:30:07.638Z,16.33
2023-05-03T05:32:36.053Z,16.17
2023-05-03T05:35:05.619Z,16.17
2023-05-03T05:37:33.930Z,16.05
2023-05-03T05:40:04.666Z,16.39
2023-05-03T05:42:33.320Z,16.19
2023-05-03T05:45:01.814Z,16.05
2023-05-03T05:47:30.461Z,15.91
2023-05-03T05:49:59.257Z,15.92
2023-05-03T05:52:27.564Z,15.94
2023-05-03T05:54:56.537Z,15.87
2023-05-03T05:57:26.077Z,16.26
2023-05-03T05:59:54.834Z,15.80
2023-05-03T06:02:25.051Z,15.89
2023-05-03T06:04:54.060Z,15.93
2023-05-03T06:07:22.726Z,16.15
2023-05-03T06:09:51.323Z,16.02
2023-05-03T06:12:19.550Z,16.10
2023-05-03T06:15:01.540Z,16.48
2023-05-03T06:17:31.815Z,16.45
2023-05-03T06:20:00.760Z,16.20
2023-05-03T06:22:33.898Z,16.29
2023-05-03T06:25:02.843Z,16.39
2023-05-03T06:27:31.278Z,16.28
2023-05-03T06:30:01.905Z,16.65
2023-05-03T06:32:30.941Z,16.30
2023-05-03T06:35:01.136Z,16.44
2023-05-03T06:37:29.441Z,16.60
2023-05-03T06:39:58.065Z,16.60
2023-05-03T06:42:26.459Z,16.75
2023-05-03T06:44:55.059Z,16.74
2023-05-03T06:47:24.995Z,17.28
2023-05-03T06:49:53.890Z,16.99
2023-05-03T06:52:22.153Z,17.12
2023-05-03T06:54:51.307Z,17.02
2023-05-03T06:57:23.035Z,16.93
2023-05-03T06:59:51.521Z,16.89
2023-05-03T07:02:21.540Z,17.30
2023-05-03T07:04:51.380Z,17.49
2023-05-03T07:07:19.913Z,17.31
2023-05-03T07:09:48.748Z,17.25
2023-05-03T07:12:17.615Z,17.36
2023-05-03T07:14:47.496Z,17.41
2023-05-03T07:17:15.954Z,17.43
2023-05-03T07:19:44.980Z,17.56
2023-05-03T07:22:14.563Z,17.88
2023-05-03T07:24:43.348Z,17.68
2023-05-03T07:27:11.604Z,17.79
2023-05-03T07:29:40.280Z,18.06
2023-05-03T07:32:09.483Z,18.29
2023-05-03T07:34:38.018Z,18.33
2023-05-03T07:37:06.872Z,18.38
2023-05-03T07:39:37.464Z,18.69
2023-05-03T07:42:06.400Z,18.17
2023-05-03T07:44:35.267Z,18.04
2023-05-03T07:47:04.359Z,18.14
2023-05-03T07:49:36.453Z,18.30
2023-05-03T07:52:04.960Z,18.41
2023-05-03T07:54:33.743Z,18.58
2023-05-03T07:57:03.912Z,18.99
2023-05-03T07:59:32.841Z,18.82
2023-05-03T08:02:01.832Z,18.86
2023-05-03T08:04:30.959Z,18.82
2023-05-03T08:07:02.222Z,19.44
2023-05-03T08:09:30.731Z,20.14
2023-05-03T08:11:59.364Z,19.33
2023-05-03T08:14:29.181Z,19.72
2023-05-03T08:16:57.557Z,19.51
2023-05-03T08:19:26.166Z,19.42
2023-05-03T08:21:55.821Z,19.32
2023-05-03T08:24:24.642Z,19.30
2023-05-03T08:26:52.929Z,19.40
2023-05-03T08:29:22.941Z,19.79
2023-05-03T08:31:52.954Z,19.82
2023-05-03T08:34:21.654Z,19.41
2023-05-03T08:36:50.194Z,19.48
2023-05-03T08:39:19.169Z,19.43
2023-05-03T08:41:47.842Z,19.55
2023-05-03T08:44:22.994Z,19.92
2023-05-03T08:46:52.771Z,19.78
2023-05-03T08:49:22.699Z,19.81
2023-05-03T08:51:51.264Z,19.74
2023-05-03T08:54:21.463Z,19.78
2023-05-03T08:56:50.188Z,19.72
2023-05-03T08:59:18.734Z,19.40
2023-05-03T09:01:47.469Z,19.29
2023-05-03T09:04:18.200Z,19.64
2023-05-03T09:06:46.967Z,19.23
2023-05-03T09:09:16.373Z,19.08
2023-05-03T09:11:44.992Z,19.03
2023-05-03T09:14:15.994Z,19.40
2023-05-03T09:16:47.459Z,19.35
2023-05-03T09:19:18.187Z,19.30
2023-05-03T09:21:48.214Z,19.19
2023-05-03T09:24:18.790Z,19.41
2023-05-03T09:26:48.467Z,19.40
2023-05-03T09:29:31.769Z,20.04
2023-05-03T09:32:01.144Z,19.49
2023-05-03T09:34:32.168Z,19.67
2023-05-03T09:37:01.083Z,19.29
2023-05-03T09:39:29.683Z,19.28
2023-05-03T09:41:58.185Z,19.51
2023-05-03T09:44:42.118Z,20.26
2023-05-03T09:47:11.378Z,19.55
2023-05-03T09:49:41.311Z,19.59
2023-05-03T09:52:09.928Z,19.28
2023-05-03T09:54:38.946Z,19.31
2023-05-03T09:57:08.727Z,19.53
2023-05-03T09:59:40.206Z,19.57
2023-05-03T10:02:09.525Z,19.40
2023-05-03T10:04:45.703Z,19.72
2023-05-03T10:07:16.152Z,19.38
2023-05-03T10:09:46.122Z,19.36
2023-05-03T10:12:17.577Z,19.35
2023-05-03T10:14:48.095Z,19.43
2023-05-03T10:17:19.141Z,19.65
2023-05-03T10:19:51.221Z,20.38
2023-05-03T10:22:19.434Z,20.52
2023-05-03T10:25:10.966Z,20.49
2023-05-03T10:27:43.111Z,20.22
2023-05-03T10:30:29.389Z,20.73
2023-05-03T10:32:57.772Z,20.18
2023-05-03T10:35:31.461Z,20.86
2023-05-03T10:38:00.218Z,20.50
2023-05-03T10:40:43.236Z,20.89
2023-05-03T10:43:48.280Z,20.69
2023-05-03T10:46:36.547Z,20.75
2023-05-03T10:49:19.279Z,20.62
2023-05-03T10:51:49.555Z,20.08
2023-05-03T10:54:19.648Z,19.65
2023-05-03T10:56:56.864Z,20.05
2023-05-03T10:59:26.070Z,19.40
2023-05-03T11:01:55.229Z,19.07
2023-05-03T11:04:34.889Z,19.49
2023-05-03T11:07:05.278Z,19.04
2023-05-03T11:09:34.981Z,18.85
2023-05-03T11:12:08.755Z,19.02
2023-05-03T11:14:39.891Z,18.73
2023-05-03T11:17:08.576Z,18.67
2023-05-03T11:19:38.116Z,18.86
2023-05-03T11:22:08.296Z,19.21
2023-05-03T11:24:36.883Z,18.97
2023-05-03T11:27:08.233Z,19.07
2023-05-03T11:29:38.062Z,20.46
2023-05-03T11:32:10.777Z,20.11
2023-05-03T11:34:40.490Z,19.86
2023-05-03T11:37:11.739Z,20.55
2023-05-03T11:39:40.026Z,20.16
2023-05-03T11:42:08.591Z,20.31
2023-05-03T11:44:37.817Z,20.44
2023-05-03T11:47:07.399Z,20.67
2023-05-03T11:49:36.377Z,20.76
2023-05-03T11:52:05.520Z,21.28
2023-05-03T11:54:35.743Z,21.50
2023-05-03T11:57:13.513Z,21.66
2023-05-03T11:59:42.807Z,21.35
2023-05-03T12:02:14.007Z,21.83
2023-05-03T12:04:45.258Z,22.68
2023-05-03T12:07:18.866Z,21.98
2023-05-03T12:10:01.146Z,22.02
2023-05-03T12:12:43.579Z,21.18
2023-05-03T12:15:16.345Z,20.98
2023-05-03T12:17:49.394Z,20.79
2023-05-03T12:22:56.656Z,20.37
2023-05-03T12:25:32.948Z,20.62
2023-05-03T12:28:17.881Z,20.15
2023-05-03T12:30:48.797Z,19.84
2023-05-03T12:33:22.052Z,19.89
2023-05-03T12:35:53.935Z,20.14
2023-05-03T12:38:24.616Z,20.41
2023-05-03T12:40:55.661Z,21.31
2023-05-03T12:43:24.600Z,21.38
2023-05-03T12:46:16.594Z,21.61
2023-05-03T12:48:46.220Z,21.76
2023-05-03T12:53:48.100Z,21.68
2023-05-03T12:56:23.798Z,22.09
2023-05-03T12:59:14.990Z,21.77
2023-05-03T13:06:45.191Z,22.97
2023-05-03T13:11:50.236Z,22.17
2023-05-03T13:14:19.069Z,22.87
2023-05-03T13:16:47.720Z,21.80
2023-05-03T13:19:17.553Z,22.03
2023-05-03T13:21:48.737Z,22.17
2023-05-03T13:24:17.823Z,21.78
2023-05-03T13:26:46.601Z,21.64
2023-05-03T13:29:17.605Z,22.11
2023-05-03T13:31:45.933Z,21.78
2023-05-03T13:34:16.172Z,21.93
2023-05-03T13:36:44.351Z,21.86
2023-05-03T13:39:13.152Z,21.99
2023-05-03T13:41:42.289Z,22.15
2023-05-03T13:44:11.760Z,22.18
2023-05-03T13:46:43.494Z,22.34
2023-05-03T13:49:12.201Z,21.98
2023-05-03T13:51:40.957Z,21.71
2023-05-03T13:54:09.756Z,21.66
2023-05-03T13:56:38.110Z,21.22
2023-05-03T13:59:09.706Z,21.25
2023-05-03T14:01:38.707Z,20.21
2023-05-03T14:04:10.360Z,20.05
2023-05-03T14:06:41.178Z,20.26
2023-05-03T14:09:11.203Z,20.91
2023-05-03T14:11:41.742Z,21.42
2023-05-03T14:14:10.465Z,21.50
2023-05-03T14:16:41.862Z,21.69
2023-05-03T14:19:12.609Z,21.94
2023-05-03T14:21:43.376Z,21.89
2023-05-03T14:24:12.880Z,21.49
2023-05-03T14:26:41.249Z,21.62
2023-05-03T14:29:10.301Z,21.79
2023-05-03T14:31:38.615Z,21.92
2023-05-03T14:34:08.483Z,22.06
2023-05-03T14:36:44.153Z,22.41
2023-05-03T14:39:14.561Z,21.50
2023-05-03T14:41:46.349Z,21.59
2023-05-03T14:44:15.057Z,21.70
2023-05-03T14:46:43.518Z,21.93
2023-05-03T14:49:12.814Z,21.94
2023-05-03T14:51:44.203Z,22.28
2023-05-03T14:54:13.147Z,21.71
2023-05-03T14:56:41.411Z,21.08
2023-05-03T14:59:10.287Z,20.35
2023-05-03T15:01:38.564Z,19.83
2023-05-03T15:04:07.842Z,19.98
2023-05-03T15:06:39.261Z,20.11
2023-05-03T15:09:09.461Z,20.60
2023-05-03T15:11:37.849Z,20.00
2023-05-03T15:14:07.120Z,19.99
2023-05-03T15:16:37.162Z,20.07
2023-05-03T15:19:07.552Z,20.41
2023-05-03T15:21:46.510Z,21.08
2023-05-03T15:24:16.829Z,20.93
2023-05-03T15:26:45.126Z,20.74
2023-05-03T15:29:13.717Z,20.86
2023-05-03T15:31:42.975Z,20.87
2023-05-03T15:34:12.645Z,21.00
2023-05-03T15:36:41.763Z,20.89
2023-05-03T15:39:10.560Z,20.61
2023-05-03T15:41:40.393Z,20.91
2023-05-03T15:44:10.027Z,20.49
2023-05-03T15:46:40.184Z,20.48
2023-05-03T15:49:11.621Z,20.64
2023-05-03T15:51:40.500Z,20.60
2023-05-03T15:54:09.293Z,20.63
2023-05-03T15:56:38.952Z,20.37
2023-05-03T15:59:10.429Z,20.51
2023-05-03T16:01:38.778Z,20.12
2023-05-03T16:04:07.986Z,20.08
2023-05-03T16:06:36.391Z,19.92
2023-05-03T16:09:06.740Z,19.95
2023-05-03T16:11:35.865Z,19.53
2023-05-03T16:14:09.404Z,19.32
2023-05-03T16:16:40.365Z,19.59
2023-05-03T16:19:09.461Z,19.32
2023-05-03T16:21:37.744Z,19.49
2023-05-03T16:24:07.592Z,19.40
2023-05-03T16:26:36.568Z,19.39
2023-05-03T16:29:05.757Z,19.21
2023-05-03T16:31:34.254Z,19.32
2023-05-03T16:34:04.524Z,19.57
2023-05-03T16:36:33.906Z,19.38
2023-05-03T16:39:02.522Z,19.19
2023-05-03T16:41:31.213Z,19.25
2023-05-03T16:44:05.056Z,19.02
2023-05-03T16:46:35.171Z,19.22
2023-05-03T16:49:05.311Z,19.30
2023-05-03T16:51:33.899Z,18.99
2023-05-03T16:54:04.433Z,18.91
2023-05-03T16:56:33.168Z,18.90
2023-05-03T16:59:03.114Z,18.84
2023-05-03T17:01:31.296Z,18.73
2023-05-03T17:04:00.040Z,18.75
2023-05-03T17:06:30.085Z,19.05
2023-05-03T17:08:58.723Z,18.73
2023-05-03T17:11:27.467Z,18.56
2023-05-03T17:13:56.132Z,18.58
2023-05-03T17:16:24.827Z,18.58
2023-05-03T17:18:53.498Z,18.41
2023-05-03T17:21:21.797Z,18.30
2023-05-03T17:23:51.774Z,18.55
2023-05-03T17:26:21.397Z,18.04
2023-05-03T17:28:50.150Z,18.05
2023-05-03T17:31:18.378Z,17.97
2023-05-03T17:33:47.058Z,18.04
2023-05-03T17:36:15.398Z,17.95
2023-05-03T17:38:43.867Z,17.68
2023-05-03T17:41:13.787Z,17.90
2023-05-03T17:43:42.880Z,17.51
2023-05-03T17:46:14.608Z,17.78
2023-05-03T17:48:44.302Z,17.67
2023-05-03T17:51:13.683Z,17.18
2023-05-03T17:53:43.577Z,17.40
2023-05-03T17:56:16.577Z,17.67
2023-05-03T17:58:46.758Z,17.27
2023-05-03T18:01:16.004Z,16.99
2023-05-03T18:03:44.724Z,16.94
2023-05-03T18:06:14.291Z,17.13
2023-05-03T18:08:43.612Z,17.07
2023-05-03T18:11:12.041Z,16.85
2023-05-03T18:13:41.999Z,17.20
2023-05-03T18:16:10.734Z,16.83
2023-05-03T18:18:39.562Z,16.61
2023-05-03T18:21:08.249Z,16.70
2023-05-03T18:23:36.936Z,16.62
2023-05-03T18:26:05.479Z,16.41
2023-05-03T18:28:34.938Z,16.26
2023-05-03T18:31:05.063Z,16.58
2023-05-03T18:33:33.789Z,16.21
2023-05-03T18:36:03.248Z,16.06
2023-05-03T18:38:31.797Z,16.05
2023-05-03T18:41:00.053Z,15.84
2023-05-03T18:43:28.690Z,15.89
2023-05-03T18:45:57.033Z,15.83
2023-05-03T18:48:27.102Z,16.04
2023-05-03T18:50:55.396Z,15.55
2023-05-03T18:53:24.293Z,15.48
2023-05-03T18:55:52.692Z,15.40
2023-05-03T18:58:21.172Z,15.23
2023-05-03T19:00:49.706Z,15.20
2023-05-03T19:03:18.330Z,14.86
2023-05-03T19:05:48.041Z,15.26
2023-05-03T19:08:16.594Z,14.86
2023-05-03T19:10:44.784Z,14.52
2023-05-03T19:13:15.118Z,14.08
2023-05-03T19:15:43.961Z,14.09
2023-05-03T19:18:14.841Z,14.39
2023-05-03T19:20:45.390Z,14.48
2023-05-03T19:23:15.588Z,14.80
2023-05-03T19:25:44.090Z,14.41
2023-05-03T19:28:12.743Z,14.44
2023-05-03T19:30:45.435Z,14.26
2023-05-03T19:33:14.327Z,14.22
2023-05-03T19:35:42.544Z,14.21
2023-05-03T19:38:11.240Z,14.21
2023-05-03T19:40:41.575Z,14.61
2023-05-03T19:43:10.176Z,14.20
2023-05-03T19:45:43.087Z,14.71
2023-05-03T19:48:12.860Z,14.28
2023-05-03T19:50:43.225Z,14.37
2023-05-03T19:53:12.205Z,14.21
2023-05-03T19:55:42.269Z,14.53
2023-05-03T19:58:11.114Z,14.23
2023-05-03T20:00:39.816Z,14.20
2023-05-03T20:03:08.722Z,14.08
2023-05-03T20:05:37.651Z,14.29
2023-05-03T20:08:06.554Z,14.13
2023-05-03T20:10:36.524Z,14.06
2023-05-03T20:13:07.346Z,14.36
2023-05-03T20:15:37.395Z,14.27
2023-05-03T20:18:06.315Z,13.98
2023-05-03T20:20:34.851Z,13.95
2023-05-03T20:23:03.448Z,13.86
2023-05-03T20:25:31.900Z,13.86
2023-05-03T20:28:00.519Z,13.85
2023-05-03T20:30:31.778Z,14.19
2023-05-03T20:33:00.667Z,13.84
2023-05-03T20:35:28.941Z,13.78
2023-05-03T20:37:57.582Z,13.78
2023-05-03T20:40:25.905Z,13.70
2023-05-03T20:42:54.503Z,13.69
2023-05-03T20:45:23.149Z,13.60
2023-05-03T20:47:53.322Z,13.98
2023-05-03T20:50:22.267Z,13.66
2023-05-03T20:52:50.892Z,13.37
2023-05-03T20:55:19.434Z,13.31
2023-05-03T20:57:47.929Z,13.10
2023-05-03T21:00:16.790Z,13.19
2023-05-03T21:02:46.655Z,12.87
2023-05-03T21:05:16.297Z,13.22
2023-05-03T21:07:44.841Z,12.84
2023-05-03T21:10:13.130Z,12.91
2023-05-03T21:12:41.832Z,12.82
2023-05-03T21:15:11.494Z,13.11
2023-05-03T21:17:40.092Z,12.88
2023-05-03T21:20:10.714Z,13.11
2023-05-03T21:22:40.952Z,13.13
2023-05-03T21:25:11.719Z,12.98
2023-05-03T21:27:41.121Z,12.72
2023-05-03T21:30:10.939Z,12.93
2023-05-03T21:32:40.017Z,12.70
2023-05-03T21:35:09.927Z,12.86
2023-05-03T21:37:40.124Z,12.73
2023-05-03T21:40:10.299Z,12.86
2023-05-03T21:42:39.021Z,12.65
2023-05-03T21:45:08.686Z,12.81
2023-05-03T21:47:38.601Z,12.59
2023-05-03T21:50:08.149Z,12.89
2023-05-03T21:52:38.429Z,12.96
2023-05-03T21:55:09.499Z,12.97
2023-05-03T21:57:39.061Z,12.93
2023-05-03T22:00:14.156Z,12.89
2023-05-03T22:02:43.154Z,12.61
2023-05-03T22:05:11.926Z,12.83
2023-05-03T22:07:43.977Z,12.98
2023-05-03T22:10:13.938Z,12.99
2023-05-03T22:12:43.632Z,12.67
2023-05-03T22:15:13.272Z,12.88
2023-05-03T22:17:41.928Z,12.69
2023-05-03T22:20:11.778Z,12.99
2023-05-03T22:22:41.896Z,12.71
2023-05-03T22:25:11.051Z,12.89
2023-05-03T22:27:40.939Z,12.97
2023-05-03T22:30:10.560Z,12.85
2023-05-03T22:32:39.193Z,12.60
2023-05-03T22:35:09.433Z,12.86
2023-05-03T22:37:38.672Z,12.88
2023-05-03T22:40:09.407Z,13.05
2023-05-03T22:42:38.117Z,12.88
2023-05-03T22:45:09.336Z,13.23
2023-05-03T22:47:38.111Z,12.91
2023-05-03T22:50:07.837Z,13.00
2023-05-03T22:52:36.442Z,12.72
2023-05-03T22:55:05.016Z,12.78
2023-05-03T22:57:33.630Z,12.61
2023-05-03T23:00:02.396Z,12.70
2023-05-03T23:02:32.723Z,12.81
2023-05-03T23:05:01.216Z,12.43
2023-05-03T23:07:29.911Z,12.31
2023-05-03T23:10:02.814Z,12.73
2023-05-03T23:12:32.026Z,12.29
2023-05-03T23:15:00.524Z,12.08
2023-05-03T23:17:32.112Z,12.19
2023-05-03T23:20:00.493Z,12.01
2023-05-03T23:22:29.408Z,11.95
2023-05-03T23:24:57.772Z,11.95
2023-05-03T23:27:26.398Z,11.78
2023-05-03T23:29:56.465Z,12.11
2023-05-03T23:32:25.736Z,11.74
2023-05-03T23:34:55.986Z,12.06
2023-05-03T23:37:24.499Z,11.59
2023-05-03T23:39:53.679Z,11.62
2023-05-03T23:42:22.490Z,11.65
2023-05-03T23:44:55.302Z,11.46
2023-05-03T23:47:24.786Z,11.45
2023-05-03T23:49:53.425Z,11.34
2023-05-03T23:52:23.615Z,11.58
2023-05-03T23:54:53.546Z,11.13
2023-05-03T23:57:22.239Z,11.06
2023-05-03T23:59:50.746Z,11.09
